Time;durP1;ratioP1;P1;durP2;ratioP2;P2;SDS_P1;SDS_P2;PMS_P1;PMS_P2;Temp;Humidity;BMP_temperature;BMP_pressure;BME280_temperature;BME280_humidity;BME280_pressure;Samples;Min_cycle;Max_cycle;Signal;HPM_P1;HPM_P2
2023/07/16 00:00:50;;;;;;;15.37;2.70;;;;;;;;;;5007754;28;20253;-59
2023/07/16 00:03:18;;;;;;;11.98;2.45;;;;;;;;;;5018879;28;20471;-59
2023/07/16 00:05:46;;;;;;;7.93;1.77;;;;;;;;;;5006997;28;20440;-59
2023/07/16 00:08:14;;;;;;;9.75;2.15;;;;;;;;;;5007771;28;20428;-59
2023/07/16 00:10:43;;;;;;;11.60;2.63;;;;;;;;;;5025295;28;20049;-59
2023/07/16 00:13:10;;;;;;;9.83;2.00;;;;;;;;;;4996282;28;22016;-59
2023/07/16 00:15:38;;;;;;;10.10;2.47;;;;;;;;;;5012410;28;20059;-58
2023/07/16 00:18:06;;;;;;;10.63;2.53;;;;;;;;;;5017716;28;20029;-59
2023/07/16 00:20:34;;;;;;;14.65;3.42;;;;;;;;;;5001951;28;20049;-59
2023/07/16 00:23:01;;;;;;;11.98;2.47;;;;;;;;;;5018423;28;20686;-59
2023/07/16 00:25:29;;;;;;;13.60;2.87;;;;;;;;;;5012184;28;20041;-59
2023/07/16 00:28:17;;;;;;;13.07;3.72;;;;;;;;;;5013083;28;20048;-59
2023/07/16 00:30:48;;;;;;;10.88;2.25;;;;;;;;;;5007239;28;20056;-59
2023/07/16 00:33:15;;;;;;;13.07;2.40;;;;;;;;;;5011688;28;20060;-59
2023/07/16 00:35:47;;;;;;;16.42;3.22;;;;;;;;;;5011390;28;20559;-59
2023/07/16 00:38:15;;;;;;;14.87;3.10;;;;;;;;;;5012626;28;20049;-59
2023/07/16 00:40:42;;;;;;;12.35;2.53;;;;;;;;;;5008522;28;20037;-59
2023/07/16 00:43:10;;;;;;;10.27;2.38;;;;;;;;;;5012605;28;20173;-59
2023/07/16 00:45:40;;;;;;;10.88;2.65;;;;;;;;;;5006733;28;20033;-59
2023/07/16 00:48:08;;;;;;;16.20;3.40;;;;;;;;;;5014999;28;20095;-59
2023/07/16 00:50:39;;;;;;;15.67;3.43;;;;;;;;;;5026304;28;20068;-59
2023/07/16 00:53:07;;;;;;;9.02;2.67;;;;;;;;;;5003136;28;20499;-59
2023/07/16 00:55:52;;;;;;;18.92;2.67;;;;;;;;;;5011207;28;20045;-59
2023/07/16 00:58:20;;;;;;;16.20;3.33;;;;;;;;;;5010102;28;20038;-59
2023/07/16 01:00:49;;;;;;;17.73;3.88;;;;;;;;;;5013152;28;20475;-59
2023/07/16 01:03:17;;;;;;;25.53;3.40;;;;;;;;;;5006430;28;20429;-59
2023/07/16 01:05:48;;;;;;;14.80;3.22;;;;;;;;;;5027005;28;20214;-59
2023/07/16 01:08:20;;;;;;;13.60;3.40;;;;;;;;;;4997598;28;20037;-59
2023/07/16 01:10:48;;;;;;;17.88;3.50;;;;;;;;;;5007482;28;20044;-60
2023/07/16 01:13:16;;;;;;;18.45;3.17;;;;;;;;;;5008613;28;20032;-59
2023/07/16 01:15:43;;;;;;;18.83;3.23;;;;;;;;;;5023989;28;20495;-59
2023/07/16 01:18:18;;;;;;;19.95;4.07;;;;;;;;;;4999114;28;20568;-59
2023/07/16 01:20:45;;;;;;;15.70;3.47;;;;;;;;;;5020772;28;20037;-59
2023/07/16 01:23:26;;;;;;;16.10;4.68;;;;;;;;;;5003711;28;20029;-59
2023/07/16 01:26:02;;;;;;;18.92;3.38;;;;;;;;;;5025629;28;20041;-59
2023/07/16 01:28:50;;;;;;;23.00;4.30;;;;;;;;;;5007661;28;20038;-59
2023/07/16 01:31:21;;;;;;;20.52;4.15;;;;;;;;;;5003524;28;20403;-59
2023/07/16 01:33:49;;;;;;;24.20;4.15;;;;;;;;;;4996383;28;20041;-58
2023/07/16 01:36:18;;;;;;;16.20;4.03;;;;;;;;;;5019771;28;20116;-59
2023/07/16 01:38:46;;;;;;;28.95;4.65;;;;;;;;;;4996257;28;20586;-59
2023/07/16 01:41:14;;;;;;;15.10;3.20;;;;;;;;;;5012312;28;20037;-59
2023/07/16 01:43:42;;;;;;;21.67;4.57;;;;;;;;;;5001643;28;20044;-59
2023/07/16 01:46:10;;;;;;;24.65;4.20;;;;;;;;;;5015194;28;20033;-59
2023/07/16 01:48:39;;;;;;;15.85;3.35;;;;;;;;;;5005099;28;20495;-59
2023/07/16 01:51:06;;;;;;;18.23;3.45;;;;;;;;;;5019809;28;20045;-59
2023/07/16 01:53:34;;;;;;;18.20;3.70;;;;;;;;;;4976551;28;20940;-59
2023/07/16 01:56:02;;;;;;;17.10;3.45;;;;;;;;;;5016470;28;20033;-60
2023/07/16 01:58:30;;;;;;;17.98;2.80;;;;;;;;;;5008844;28;20033;-59
2023/07/16 02:00:57;;;;;;;18.40;3.35;;;;;;;;;;5004964;28;20040;-59
2023/07/16 02:03:25;;;;;;;19.42;3.17;;;;;;;;;;5002564;28;20316;-59
2023/07/16 02:05:54;;;;;;;20.83;3.17;;;;;;;;;;5016207;28;20601;-59
2023/07/16 02:08:22;;;;;;;24.75;4.30;;;;;;;;;;4998115;28;20037;-59
2023/07/16 02:10:50;;;;;;;22.35;3.30;;;;;;;;;;4992887;28;20056;-59
2023/07/16 02:13:17;;;;;;;19.00;3.63;;;;;;;;;;5000018;28;20757;-59
2023/07/16 02:15:47;;;;;;;19.13;3.75;;;;;;;;;;4999430;28;20227;-59
2023/07/16 02:18:15;;;;;;;20.87;3.20;;;;;;;;;;5001674;28;20033;-59
2023/07/16 02:20:44;;;;;;;16.77;3.05;;;;;;;;;;4997943;28;20042;-59
2023/07/16 02:23:13;;;;;;;15.15;3.67;;;;;;;;;;4995379;28;20037;-60
2023/07/16 02:25:40;;;;;;;25.70;3.95;;;;;;;;;;5024883;28;20635;-58
2023/07/16 02:28:08;;;;;;;19.83;3.15;;;;;;;;;;4996297;28;20120;-58
2023/07/16 02:30:36;;;;;;;23.87;4.23;;;;;;;;;;5011616;28;20052;-58
2023/07/16 02:33:03;;;;;;;16.33;3.58;;;;;;;;;;5012017;28;20580;-58
2023/07/16 02:35:31;;;;;;;19.38;2.95;;;;;;;;;;4999853;28;20041;-58
2023/07/16 02:37:59;;;;;;;19.00;2.85;;;;;;;;;;5004907;28;20388;-58
2023/07/16 02:40:28;;;;;;;17.23;3.83;;;;;;;;;;5011359;28;20040;-58
2023/07/16 02:42:56;;;;;;;21.53;4.30;;;;;;;;;;5019674;28;20469;-58
2023/07/16 02:45:24;;;;;;;16.30;2.60;;;;;;;;;;5015541;28;20379;-59
2023/07/16 02:47:51;;;;;;;16.83;2.92;;;;;;;;;;5008528;28;20034;-58
2023/07/16 02:50:19;;;;;;;25.30;4.10;;;;;;;;;;5009500;28;20037;-58
2023/07/16 02:52:47;;;;;;;20.85;3.28;;;;;;;;;;5005522;28;20037;-58
2023/07/16 02:55:14;;;;;;;20.30;3.30;;;;;;;;;;5007918;28;20044;-58
2023/07/16 02:57:43;;;;;;;14.88;3.67;;;;;;;;;;5011940;28;20671;-58
2023/07/16 03:00:12;;;;;;;20.27;2.70;;;;;;;;;;4973492;28;20184;-58
2023/07/16 03:02:39;;;;;;;15.68;2.85;;;;;;;;;;5008837;28;20045;-59
2023/07/16 03:05:08;;;;;;;20.05;3.63;;;;;;;;;;5021381;28;20445;-59
2023/07/16 03:07:38;;;;;;;19.83;4.03;;;;;;;;;;5019041;28;20065;-59
2023/07/16 03:10:06;;;;;;;17.48;2.90;;;;;;;;;;5002890;28;20042;-58
2023/07/16 03:12:33;;;;;;;17.67;2.53;;;;;;;;;;5017879;28;20056;-59
2023/07/16 03:15:03;;;;;;;20.90;3.75;;;;;;;;;;5006856;28;20045;-59
2023/07/16 03:17:30;;;;;;;16.45;2.85;;;;;;;;;;4970113;28;20662;-58
2023/07/16 03:19:58;;;;;;;19.50;2.27;;;;;;;;;;5016871;28;20036;-59
2023/07/16 03:22:26;;;;;;;16.52;3.40;;;;;;;;;;5012603;28;20056;-59
2023/07/16 03:24:53;;;;;;;16.90;3.13;;;;;;;;;;4995203;28;20125;-59
2023/07/16 03:27:21;;;;;;;17.05;2.75;;;;;;;;;;5014121;28;20038;-59
2023/07/16 03:29:51;;;;;;;21.05;3.13;;;;;;;;;;5010690;28;20235;-59
2023/07/16 03:32:20;;;;;;;15.90;3.10;;;;;;;;;;5009704;28;20037;-58
2023/07/16 03:34:48;;;;;;;16.98;2.60;;;;;;;;;;5013818;28;20114;-58
2023/07/16 03:37:16;;;;;;;14.00;2.60;;;;;;;;;;5013491;28;20057;-59
2023/07/16 03:39:43;;;;;;;18.45;2.55;;;;;;;;;;5013506;28;20041;-59
2023/07/16 03:42:11;;;;;;;17.58;2.58;;;;;;;;;;5011097;28;20218;-59
2023/07/16 03:44:39;;;;;;;16.53;2.47;;;;;;;;;;5002959;28;20045;-59
2023/07/16 03:47:06;;;;;;;14.57;3.10;;;;;;;;;;4993092;28;20037;-58
2023/07/16 03:49:35;;;;;;;18.35;3.15;;;;;;;;;;5002377;28;20348;-59
2023/07/16 03:52:03;;;;;;;13.75;2.20;;;;;;;;;;5013815;28;20041;-59
2023/07/16 03:54:31;;;;;;;16.80;3.22;;;;;;;;;;5009099;28;20052;-58
2023/07/16 03:56:58;;;;;;;19.90;3.20;;;;;;;;;;5001264;28;20038;-59
2023/07/16 03:59:30;;;;;;;16.92;3.30;;;;;;;;;;5003308;28;20512;-59
2023/07/16 04:01:57;;;;;;;21.95;3.03;;;;;;;;;;5012860;28;20044;-58
2023/07/16 04:04:25;;;;;;;18.65;3.05;;;;;;;;;;5015737;28;20518;-56
2023/07/16 04:06:56;;;;;;;19.02;2.65;;;;;;;;;;5006234;28;20037;-58
2023/07/16 04:09:23;;;;;;;11.87;2.37;;;;;;;;;;5010211;28;20082;-58
2023/07/16 04:11:51;;;;;;;23.40;3.08;;;;;;;;;;5010765;28;20053;-58
2023/07/16 04:14:18;;;;;;;12.93;2.25;;;;;;;;;;5023107;28;20038;-58
2023/07/16 04:16:46;;;;;;;20.80;2.85;;;;;;;;;;5002387;28;20045;-60
2023/07/16 04:19:14;;;;;;;18.75;2.60;;;;;;;;;;5003947;28;20053;-58
2023/07/16 04:21:42;;;;;;;14.20;2.53;;;;;;;;;;5019195;28;20494;-58
2023/07/16 04:24:11;;;;;;;12.00;2.65;;;;;;;;;;4994887;28;20065;-58
2023/07/16 04:26:38;;;;;;;15.77;2.58;;;;;;;;;;5021733;28;20530;-58
2023/07/16 04:29:06;;;;;;;16.20;2.63;;;;;;;;;;4992015;28;20048;-58
2023/07/16 04:31:35;;;;;;;12.65;2.22;;;;;;;;;;5002625;28;20419;-58
2023/07/16 04:34:03;;;;;;;18.90;3.07;;;;;;;;;;5011951;28;20370;-58
2023/07/16 04:36:31;;;;;;;16.88;2.20;;;;;;;;;;5019871;28;20060;-58
2023/07/16 04:38:59;;;;;;;15.02;2.75;;;;;;;;;;5001586;28;20525;-58
2023/07/16 04:41:28;;;;;;;21.23;2.42;;;;;;;;;;5014438;28;20055;-58
2023/07/16 04:43:56;;;;;;;14.05;2.55;;;;;;;;;;5009642;28;20120;-58
2023/07/16 04:46:24;;;;;;;16.97;2.53;;;;;;;;;;5008114;28;20053;-58
2023/07/16 04:48:53;;;;;;;15.93;2.28;;;;;;;;;;5016389;28;20059;-58
2023/07/16 04:51:21;;;;;;;17.58;2.25;;;;;;;;;;5009777;28;20068;-58
2023/07/16 04:53:52;;;;;;;16.92;2.85;;;;;;;;;;5005241;28;20067;-58
2023/07/16 04:56:19;;;;;;;19.25;2.55;;;;;;;;;;5008693;28;20037;-58
2023/07/16 04:58:48;;;;;;;16.90;2.73;;;;;;;;;;5024953;28;20052;-58
2023/07/16 05:01:16;;;;;;;15.90;2.70;;;;;;;;;;5009478;28;20644;-58
2023/07/16 05:03:44;;;;;;;13.63;2.80;;;;;;;;;;5008816;28;20047;-58
2023/07/16 05:06:11;;;;;;;12.40;3.05;;;;;;;;;;4996253;28;20132;-58
2023/07/16 05:08:39;;;;;;;20.48;3.47;;;;;;;;;;5010119;28;20483;-58
2023/07/16 05:11:07;;;;;;;22.70;2.57;;;;;;;;;;5016073;28;20048;-58
2023/07/16 05:13:34;;;;;;;15.52;2.35;;;;;;;;;;5012882;28;20049;-59
2023/07/16 05:16:04;;;;;;;15.15;2.22;;;;;;;;;;5004249;28;20041;-58
2023/07/16 05:18:38;;;;;;;14.73;2.55;;;;;;;;;;5014680;28;20056;-59
2023/07/16 05:21:06;;;;;;;16.02;2.08;;;;;;;;;;5011533;28;20041;-57
2023/07/16 05:23:34;;;;;;;13.70;2.07;;;;;;;;;;5020657;28;20053;-58
2023/07/16 05:26:01;;;;;;;15.45;2.28;;;;;;;;;;5013787;28;20039;-59
2023/07/16 05:28:29;;;;;;;19.13;2.97;;;;;;;;;;5017937;28;20421;-58
2023/07/16 05:31:01;;;;;;;15.63;1.80;;;;;;;;;;5004972;28;20072;-58
2023/07/16 05:33:41;;;;;;;17.05;2.15;;;;;;;;;;5005802;28;20049;-58
2023/07/16 05:36:09;;;;;;;17.80;2.50;;;;;;;;;;5016906;28;20045;-58
2023/07/16 05:38:37;;;;;;;16.38;2.13;;;;;;;;;;5003110;28;20037;-58
2023/07/16 05:41:04;;;;;;;14.70;3.10;;;;;;;;;;5017109;28;20041;-58
2023/07/16 05:51:55;;;;;;;8.88;1.90;;;;;;;;;;5008635;28;20053;-59
2023/07/16 05:54:23;;;;;;;16.45;2.50;;;;;;;;;;5017829;28;20418;-59
2023/07/16 05:56:51;;;;;;;14.20;2.00;;;;;;;;;;5012645;28;20064;-59
2023/07/16 05:59:19;;;;;;;19.27;2.55;;;;;;;;;;5000326;28;20127;-59
2023/07/16 06:01:48;;;;;;;12.47;1.87;;;;;;;;;;5017620;28;20049;-58
2023/07/16 06:04:16;;;;;;;11.65;2.10;;;;;;;;;;5016071;28;20052;-59
2023/07/16 06:06:45;;;;;;;16.17;2.30;;;;;;;;;;5009014;28;20069;-59
2023/07/16 06:09:14;;;;;;;11.77;1.90;;;;;;;;;;5018581;28;20052;-58
2023/07/16 06:11:42;;;;;;;14.48;2.75;;;;;;;;;;5016711;28;20045;-59
2023/07/16 06:14:10;;;;;;;13.10;2.30;;;;;;;;;;5020748;28;20056;-59
2023/07/16 06:16:40;;;;;;;11.45;2.10;;;;;;;;;;5013667;28;20049;-59
2023/07/16 06:19:08;;;;;;;12.27;1.83;;;;;;;;;;5010253;28;20490;-59
2023/07/16 06:21:36;;;;;;;15.20;1.60;;;;;;;;;;5025707;28;20045;-59
2023/07/16 06:24:03;;;;;;;11.75;2.53;;;;;;;;;;5007756;28;20081;-59
2023/07/16 06:26:32;;;;;;;10.97;2.30;;;;;;;;;;5025842;28;20542;-59
2023/07/16 06:29:00;;;;;;;8.15;1.55;;;;;;;;;;5010383;28;20136;-59
2023/07/16 06:31:29;;;;;;;11.20;1.85;;;;;;;;;;5018406;28;20044;-59
2023/07/16 06:33:58;;;;;;;16.95;2.20;;;;;;;;;;5000612;28;20051;-59
2023/07/16 06:36:26;;;;;;;19.05;1.85;;;;;;;;;;5012746;28;20053;-59
2023/07/16 06:38:53;;;;;;;13.27;2.07;;;;;;;;;;5016319;28;20044;-59
2023/07/16 06:41:21;;;;;;;11.60;2.28;;;;;;;;;;5017861;28;20072;-59
2023/07/16 06:43:50;;;;;;;13.90;1.88;;;;;;;;;;5004745;28;20041;-59
2023/07/16 06:46:18;;;;;;;13.32;1.80;;;;;;;;;;5028187;28;20051;-59
2023/07/16 06:48:46;;;;;;;15.60;2.25;;;;;;;;;;5001400;28;20060;-58
2023/07/16 06:51:14;;;;;;;18.33;2.70;;;;;;;;;;5049266;28;20044;-59
2023/07/16 06:53:43;;;;;;;12.68;2.08;;;;;;;;;;5060543;28;20156;-59
2023/07/16 06:56:12;;;;;;;12.07;2.30;;;;;;;;;;5059802;28;20047;-59
2023/07/16 06:58:40;;;;;;;16.85;2.10;;;;;;;;;;5056340;28;20506;-59
2023/07/16 07:01:09;;;;;;;11.05;1.70;;;;;;;;;;5055761;28;20052;-59
2023/07/16 07:03:38;;;;;;;15.23;1.93;;;;;;;;;;5058648;28;20075;-59
2023/07/16 07:06:06;;;;;;;33.15;3.63;;;;;;;;;;4353298;28;10000646;-58
2023/07/16 07:08:34;;;;;;;15.00;2.47;;;;;;;;;;5054649;28;20059;-59
2023/07/16 07:11:01;;;;;;;12.15;2.63;;;;;;;;;;5051802;28;20209;-59
2023/07/16 07:13:29;;;;;;;17.27;2.80;;;;;;;;;;5050813;28;20056;-58
2023/07/16 07:15:57;;;;;;;15.50;2.33;;;;;;;;;;5066081;28;20048;-59
2023/07/16 07:18:26;;;;;;;17.00;2.08;;;;;;;;;;5052585;28;20044;-56
2023/07/16 07:20:55;;;;;;;12.93;2.20;;;;;;;;;;4698122;28;10000207;-60
2023/07/16 07:23:22;;;;;;;17.13;3.03;;;;;;;;;;5047563;28;20036;-60
2023/07/16 07:25:51;;;;;;;12.85;1.92;;;;;;;;;;5051731;28;20490;-60
2023/07/16 07:28:19;;;;;;;14.70;2.30;;;;;;;;;;5052601;28;20051;-60
2023/07/16 07:30:47;;;;;;;12.30;1.90;;;;;;;;;;5050537;28;20048;-59
2023/07/16 07:33:14;;;;;;;12.80;2.20;;;;;;;;;;5066549;28;20040;-60
2023/07/16 07:35:44;;;;;;;13.07;1.77;;;;;;;;;;5037814;28;21026;-60
2023/07/16 07:38:11;;;;;;;15.80;2.72;;;;;;;;;;5065701;28;20514;-59
2023/07/16 07:40:39;;;;;;;10.25;1.98;;;;;;;;;;5050783;28;20143;-59
2023/07/16 07:43:07;;;;;;;12.95;2.28;;;;;;;;;;5046798;28;20047;-59
2023/07/16 07:45:35;;;;;;;12.03;2.23;;;;;;;;;;5052772;28;20127;-60
2023/07/16 07:48:03;;;;;;;16.13;2.50;;;;;;;;;;5064146;28;20044;-59
2023/07/16 07:50:31;;;;;;;11.98;2.47;;;;;;;;;;5060144;28;20388;-60
2023/07/16 07:53:00;;;;;;;14.82;2.20;;;;;;;;;;5056856;28;20048;-59
2023/07/16 07:55:28;;;;;;;13.85;2.28;;;;;;;;;;5055706;28;20044;-59
2023/07/16 07:57:56;;;;;;;9.53;1.77;;;;;;;;;;5070205;28;20048;-59
2023/07/16 08:00:24;;;;;;;10.95;2.35;;;;;;;;;;5057247;28;20056;-60
2023/07/16 08:02:51;;;;;;;13.07;1.90;;;;;;;;;;5060611;28;20126;-60
2023/07/16 08:05:20;;;;;;;16.52;2.20;;;;;;;;;;5049524;28;20294;-60
2023/07/16 08:07:48;;;;;;;10.93;2.00;;;;;;;;;;5060736;28;20054;-60
2023/07/16 08:10:17;;;;;;;11.43;1.83;;;;;;;;;;5063266;28;20079;-60
2023/07/16 08:12:44;;;;;;;8.20;1.60;;;;;;;;;;5066029;28;20063;-60
2023/07/16 08:15:14;;;;;;;15.82;2.22;;;;;;;;;;5053513;28;20086;-60
2023/07/16 08:17:42;;;;;;;16.58;1.77;;;;;;;;;;5063314;28;20093;-60
2023/07/16 08:20:11;;;;;;;10.32;1.98;;;;;;;;;;5053444;28;20489;-59
2023/07/16 08:22:39;;;;;;;8.80;1.63;;;;;;;;;;5053780;28;20543;-60
2023/07/16 08:25:07;;;;;;;13.18;2.00;;;;;;;;;;5068728;28;20063;-60
2023/07/16 08:27:37;;;;;;;12.43;3.17;;;;;;;;;;5056331;28;20051;-60
2023/07/16 08:30:05;;;;;;;11.57;2.60;;;;;;;;;;5071005;28;20059;-60
2023/07/16 08:32:32;;;;;;;15.20;2.30;;;;;;;;;;5054195;28;20052;-60
2023/07/16 08:35:00;;;;;;;12.07;1.93;;;;;;;;;;5067036;28;20083;-59
2023/07/16 08:37:28;;;;;;;14.02;1.90;;;;;;;;;;5058723;28;20048;-60
2023/07/16 08:40:00;;;;;;;11.45;1.63;;;;;;;;;;5067138;28;20048;-60
2023/07/16 08:42:28;;;;;;;13.48;1.77;;;;;;;;;;5062054;28;20155;-60
2023/07/16 08:44:58;;;;;;;21.63;2.67;;;;;;;;;;5051348;28;20040;-60
2023/07/16 08:47:26;;;;;;;12.53;1.70;;;;;;;;;;5065777;28;20576;-59
2023/07/16 08:49:55;;;;;;;23.67;2.42;;;;;;;;;;5051245;28;20072;-60
2023/07/16 08:52:23;;;;;;;9.15;1.90;;;;;;;;;;5060475;28;20162;-60
2023/07/16 08:54:51;;;;;;;9.13;1.73;;;;;;;;;;5045647;28;20232;-59
2023/07/16 08:57:19;;;;;;;12.02;2.10;;;;;;;;;;5044682;28;20074;-60
2023/07/16 08:59:48;;;;;;;9.77;1.17;;;;;;;;;;5048750;28;20768;-59
2023/07/16 09:02:18;;;;;;;10.15;1.40;;;;;;;;;;5050219;28;20047;-60
2023/07/16 09:04:47;;;;;;;10.40;1.85;;;;;;;;;;5057888;28;20048;-58
2023/07/16 09:07:15;;;;;;;13.82;1.80;;;;;;;;;;5058053;28;20044;-60
2023/07/16 09:09:42;;;;;;;10.60;1.55;;;;;;;;;;5053395;28;20519;-59
2023/07/16 09:12:12;;;;;;;11.80;2.10;;;;;;;;;;5065173;28;20122;-60
2023/07/16 09:14:41;;;;;;;13.23;1.60;;;;;;;;;;5054080;28;20525;-59
2023/07/16 09:17:08;;;;;;;11.30;1.65;;;;;;;;;;5059285;28;20487;-59
2023/07/16 09:19:38;;;;;;;9.43;1.88;;;;;;;;;;5044769;28;20391;-60
2023/07/16 09:22:05;;;;;;;10.13;2.00;;;;;;;;;;4356452;28;10000097;-58
2023/07/16 09:24:36;;;;;;;11.07;2.28;;;;;;;;;;5055426;28;20056;-60
2023/07/16 09:27:08;;;;;;;11.38;1.90;;;;;;;;;;5058539;28;20139;-60
2023/07/16 09:29:38;;;;;;;6.72;1.00;;;;;;;;;;5063566;28;20122;-60
2023/07/16 09:32:07;;;;;;;12.30;1.43;;;;;;;;;;5048400;28;20106;-59
2023/07/16 09:34:34;;;;;;;8.80;1.30;;;;;;;;;;5069689;28;20155;-60
2023/07/16 09:37:05;;;;;;;11.65;1.92;;;;;;;;;;5042755;28;20051;-60
2023/07/16 09:39:33;;;;;;;6.88;1.40;;;;;;;;;;5068783;28;20060;-60
2023/07/16 09:42:02;;;;;;;9.70;1.77;;;;;;;;;;5055446;28;20064;-60
2023/07/16 09:44:30;;;;;;;8.07;1.87;;;;;;;;;;5066267;28;20525;-60
2023/07/16 09:46:58;;;;;;;11.50;1.42;;;;;;;;;;5054388;28;20059;-60
2023/07/16 09:49:30;;;;;;;10.88;1.45;;;;;;;;;;5056173;28;20083;-59
2023/07/16 09:51:58;;;;;;;10.85;1.60;;;;;;;;;;5053195;28;20036;-59
2023/07/16 09:54:29;;;;;;;11.18;1.38;;;;;;;;;;5057570;28;20148;-58
2023/07/16 09:57:00;;;;;;;9.93;2.43;;;;;;;;;;5061571;28;20058;-60
2023/07/16 09:59:29;;;;;;;10.88;1.92;;;;;;;;;;5057004;28;20044;-60
2023/07/16 10:01:57;;;;;;;9.32;1.73;;;;;;;;;;5053943;28;20044;-60
2023/07/16 10:04:38;;;;;;;10.23;1.95;;;;;;;;;;5059310;28;20052;-60
2023/07/16 10:07:26;;;;;;;11.38;1.95;;;;;;;;;;5053479;28;20067;-60
2023/07/16 10:09:56;;;;;;;9.83;1.80;;;;;;;;;;5056027;28;20043;-60
2023/07/16 10:12:25;;;;;;;9.50;1.10;;;;;;;;;;5063245;28;20483;-60
2023/07/16 10:14:56;;;;;;;6.05;1.10;;;;;;;;;;5053890;28;20109;-59
2023/07/16 10:17:24;;;;;;;7.30;1.70;;;;;;;;;;5061593;28;20036;-59
2023/07/16 10:19:57;;;;;;;8.43;2.47;;;;;;;;;;5053810;28;20044;-59
2023/07/16 10:22:32;;;;;;;8.20;1.00;;;;;;;;;;5051234;28;20056;-54
2023/07/16 10:25:01;;;;;;;8.27;1.15;;;;;;;;;;5064524;28;20074;-58
2023/07/16 10:27:31;;;;;;;8.48;1.52;;;;;;;;;;5046922;28;20922;-59
2023/07/16 10:29:59;;;;;;;7.00;1.17;;;;;;;;;;5049282;28;20495;-59
2023/07/16 10:32:29;;;;;;;4.80;0.95;;;;;;;;;;5050219;28;20062;-58
2023/07/16 10:34:57;;;;;;;8.13;0.93;;;;;;;;;;5041793;28;20466;-58
2023/07/16 10:37:25;;;;;;;5.85;1.00;;;;;;;;;;5058624;28;20044;-58
2023/07/16 10:39:54;;;;;;;5.50;0.93;;;;;;;;;;5066585;28;20123;-59
2023/07/16 10:42:23;;;;;;;5.30;0.82;;;;;;;;;;5055016;28;20399;-59
2023/07/16 10:44:59;;;;;;;8.18;1.95;;;;;;;;;;5067878;28;20520;-58
2023/07/16 10:47:31;;;;;;;8.13;0.90;;;;;;;;;;5057220;28;20546;-58
2023/07/16 10:49:59;;;;;;;6.85;1.08;;;;;;;;;;5053602;28;20040;-61
2023/07/16 10:52:27;;;;;;;6.43;1.33;;;;;;;;;;5064319;28;20048;-58
2023/07/16 10:54:57;;;;;;;5.25;0.70;;;;;;;;;;5052497;28;20056;-58
2023/07/16 10:57:26;;;;;;;8.40;1.35;;;;;;;;;;5056820;28;20048;-59
2023/07/16 10:59:56;;;;;;;10.90;1.73;;;;;;;;;;5049750;28;20051;-59
2023/07/16 11:02:24;;;;;;;6.45;0.73;;;;;;;;;;5060440;28;20044;-59
2023/07/16 11:04:53;;;;;;;5.75;0.95;;;;;;;;;;5054516;28;20074;-59
2023/07/16 11:07:22;;;;;;;5.68;0.70;;;;;;;;;;5065208;28;20067;-59
2023/07/16 11:09:51;;;;;;;7.45;0.95;;;;;;;;;;5058303;28;20575;-59
2023/07/16 11:12:20;;;;;;;3.30;0.60;;;;;;;;;;5050004;28;20044;-59
2023/07/16 11:14:49;;;;;;;4.07;0.60;;;;;;;;;;5058714;28;20304;-58
2023/07/16 11:17:17;;;;;;;4.32;0.60;;;;;;;;;;5066136;28;20040;-60
2023/07/16 11:19:46;;;;;;;3.92;0.75;;;;;;;;;;5046837;28;20502;-59
2023/07/16 11:22:14;;;;;;;5.03;0.77;;;;;;;;;;5066258;28;20060;-59
2023/07/16 11:24:43;;;;;;;6.10;0.70;;;;;;;;;;5063788;28;20048;-60
2023/07/16 11:27:15;;;;;;;4.82;0.75;;;;;;;;;;5054926;28;20049;-60
2023/07/16 11:29:45;;;;;;;5.13;0.88;;;;;;;;;;5064587;28;20052;-60
2023/07/16 11:32:15;;;;;;;5.63;1.10;;;;;;;;;;5054735;28;20754;-59
2023/07/16 11:34:55;;;;;;;3.47;0.70;;;;;;;;;;5070365;28;20514;-60
2023/07/16 11:37:23;;;;;;;5.10;0.80;;;;;;;;;;5038975;28;20054;-60
2023/07/16 11:39:55;;;;;;;3.45;0.50;;;;;;;;;;5058181;28;20086;-60
2023/07/16 11:42:28;;;;;;;6.00;0.93;;;;;;;;;;5048746;28;20055;-60
2023/07/16 11:44:57;;;;;;;4.88;1.05;;;;;;;;;;5060057;28;20047;-60
2023/07/16 11:47:26;;;;;;;5.25;0.80;;;;;;;;;;5066246;28;20067;-60
2023/07/16 11:49:54;;;;;;;5.80;0.90;;;;;;;;;;5058134;28;20358;-59
2023/07/16 11:52:22;;;;;;;5.95;1.10;;;;;;;;;;5069831;28;20048;-60
2023/07/16 11:54:49;;;;;;;6.55;1.23;;;;;;;;;;5055237;28;20368;-59
2023/07/16 11:57:17;;;;;;;4.20;0.75;;;;;;;;;;5032787;28;21094;-60
2023/07/16 11:59:45;;;;;;;5.22;0.70;;;;;;;;;;5064708;28;20055;-60
2023/07/16 12:02:13;;;;;;;6.80;0.77;;;;;;;;;;5045087;28;20044;-59
2023/07/16 12:04:42;;;;;;;6.00;0.80;;;;;;;;;;5059448;28;20056;-59
2023/07/16 12:07:10;;;;;;;5.25;0.90;;;;;;;;;;5046734;28;20048;-59
2023/07/16 12:09:37;;;;;;;5.68;0.90;;;;;;;;;;5061457;28;20047;-60
2023/07/16 12:12:07;;;;;;;8.30;1.15;;;;;;;;;;5063794;28;20109;-60
2023/07/16 12:14:36;;;;;;;4.93;0.77;;;;;;;;;;5056700;28;21120;-59
2023/07/16 12:17:04;;;;;;;4.95;1.10;;;;;;;;;;5064560;28;20414;-59
2023/07/16 12:19:32;;;;;;;7.13;1.05;;;;;;;;;;5049936;28;20048;-59
2023/07/16 12:22:01;;;;;;;6.15;0.80;;;;;;;;;;5048685;28;20044;-60
2023/07/16 12:24:29;;;;;;;7.45;1.23;;;;;;;;;;5051510;28;20072;-60
2023/07/16 12:26:56;;;;;;;5.07;0.83;;;;;;;;;;5070018;28;20655;-59
2023/07/16 12:29:24;;;;;;;8.82;1.10;;;;;;;;;;5044148;28;20040;-59
2023/07/16 12:31:52;;;;;;;4.28;0.93;;;;;;;;;;5069949;28;20127;-59
2023/07/16 12:34:24;;;;;;;7.28;0.98;;;;;;;;;;5066168;28;20587;-59
2023/07/16 12:36:53;;;;;;;8.13;1.20;;;;;;;;;;5048884;28;20059;-60
2023/07/16 12:39:22;;;;;;;6.50;1.07;;;;;;;;;;5048602;28;20054;-59
2023/07/16 12:41:50;;;;;;;8.65;1.05;;;;;;;;;;5055497;28;20491;-60
2023/07/16 12:44:18;;;;;;;7.25;0.90;;;;;;;;;;5072307;28;20044;-60
2023/07/16 12:46:45;;;;;;;7.68;1.00;;;;;;;;;;5051141;28;20775;-60
2023/07/16 12:49:13;;;;;;;6.93;1.52;;;;;;;;;;5060743;28;20145;-60
2023/07/16 12:51:41;;;;;;;11.60;1.23;;;;;;;;;;5054365;28;20052;-60
2023/07/16 12:54:09;;;;;;;6.00;0.90;;;;;;;;;;5048237;28;20052;-60
2023/07/16 12:56:38;;;;;;;5.05;1.40;;;;;;;;;;5059326;28;20479;-59
2023/07/16 12:59:06;;;;;;;7.03;0.88;;;;;;;;;;5060802;28;20044;-59
2023/07/16 13:01:34;;;;;;;9.68;0.82;;;;;;;;;;5050827;28;20074;-60
2023/07/16 13:04:02;;;;;;;8.13;1.07;;;;;;;;;;5059785;28;20052;-60
2023/07/16 13:06:30;;;;;;;8.20;1.15;;;;;;;;;;5036728;28;21540;-59
2023/07/16 13:08:57;;;;;;;5.30;1.52;;;;;;;;;;5068234;28;20044;-60
2023/07/16 13:11:25;;;;;;;8.52;1.55;;;;;;;;;;5054718;28;20058;-60
2023/07/16 13:13:54;;;;;;;12.70;1.63;;;;;;;;;;5067089;28;20187;-60
2023/07/16 13:16:22;;;;;;;7.37;1.33;;;;;;;;;;5054389;28;20053;-60
2023/07/16 13:18:49;;;;;;;8.07;1.42;;;;;;;;;;5050296;28;20438;-60
2023/07/16 13:21:17;;;;;;;5.97;1.40;;;;;;;;;;5041881;28;20043;-60
2023/07/16 13:23:45;;;;;;;6.88;1.27;;;;;;;;;;5067767;28;20578;-60
2023/07/16 13:26:12;;;;;;;8.05;2.58;;;;;;;;;;5038281;28;20656;-60
2023/07/16 13:28:42;;;;;;;9.77;1.83;;;;;;;;;;5052872;28;20048;-59
2023/07/16 13:31:11;;;;;;;13.63;2.25;;;;;;;;;;5061361;28;20128;-60
2023/07/16 13:33:39;;;;;;;7.93;1.48;;;;;;;;;;5034623;28;20079;-60
2023/07/16 13:36:07;;;;;;;10.90;1.27;;;;;;;;;;5061374;28;20051;-59
2023/07/16 13:38:34;;;;;;;7.10;1.20;;;;;;;;;;5051778;28;20498;-60
2023/07/16 13:41:02;;;;;;;5.70;0.97;;;;;;;;;;5064223;28;20047;-59
2023/07/16 13:43:30;;;;;;;6.93;1.00;;;;;;;;;;5049444;28;20604;-59
2023/07/16 13:45:57;;;;;;;5.88;1.48;;;;;;;;;;5050503;28;20130;-60
2023/07/16 13:48:26;;;;;;;7.25;1.20;;;;;;;;;;5051810;28;20519;-60
2023/07/16 13:50:57;;;;;;;4.72;0.90;;;;;;;;;;5069377;28;20507;-60
2023/07/16 13:53:25;;;;;;;5.83;1.10;;;;;;;;;;5046286;28;20040;-60
2023/07/16 13:55:53;;;;;;;6.93;1.30;;;;;;;;;;5048805;28;20805;-59
2023/07/16 13:58:21;;;;;;;4.38;1.27;;;;;;;;;;5055493;28;20129;-60
2023/07/16 14:00:49;;;;;;;6.22;1.15;;;;;;;;;;5066441;28;20056;-59
2023/07/16 14:03:16;;;;;;;5.65;1.55;;;;;;;;;;5035270;28;20040;-60
2023/07/16 14:05:46;;;;;;;7.60;1.00;;;;;;;;;;5061150;28;20067;-59
2023/07/16 14:08:13;;;;;;;5.70;1.10;;;;;;;;;;5053542;28;20058;-59
2023/07/16 14:10:41;;;;;;;6.50;0.90;;;;;;;;;;5033441;28;22087;-59
2023/07/16 14:13:12;;;;;;;6.05;1.10;;;;;;;;;;5054358;28;20646;-59
2023/07/16 14:15:40;;;;;;;6.10;1.25;;;;;;;;;;5056755;28;20044;-60
2023/07/16 14:18:07;;;;;;;5.63;1.13;;;;;;;;;;5052091;28;20063;-60
2023/07/16 14:20:35;;;;;;;5.57;1.08;;;;;;;;;;5065631;28;20052;-60
2023/07/16 14:23:04;;;;;;;4.95;1.25;;;;;;;;;;5058855;28;20044;-60
2023/07/16 14:25:32;;;;;;;5.00;1.17;;;;;;;;;;5060772;28;20453;-59
2023/07/16 14:28:05;;;;;;;5.97;1.50;;;;;;;;;;5058792;28;20537;-59
2023/07/16 14:30:33;;;;;;;4.90;1.13;;;;;;;;;;5068435;28;20052;-60
2023/07/16 14:33:03;;;;;;;5.07;1.00;;;;;;;;;;5054488;28;20123;-60
2023/07/16 14:35:31;;;;;;;4.47;0.80;;;;;;;;;;5067928;28;20119;-60
2023/07/16 14:38:06;;;;;;;4.68;0.60;;;;;;;;;;5060227;28;20197;-60
2023/07/16 14:40:33;;;;;;;3.63;0.90;;;;;;;;;;5071534;28;20078;-60
2023/07/16 14:43:01;;;;;;;5.83;1.10;;;;;;;;;;5061697;28;20051;-60
2023/07/16 14:45:29;;;;;;;4.85;1.00;;;;;;;;;;5062271;28;20040;-60
2023/07/16 14:47:57;;;;;;;7.15;1.27;;;;;;;;;;5071300;28;20106;-60
2023/07/16 14:50:24;;;;;;;5.25;1.25;;;;;;;;;;5047834;28;20058;-60